Middletown, Pennsylvania
Current Conditions -  °F | °C
As of 11:56 PM on Wednesday 22 Oct 2014 (Local Time) from KMDT Reporting Station
Broken Clouds Broken Clouds  
Wind Chill: 52°   Ceiling: 2500
Heat Index: 52°   Visibility: 10mi
Dew Point: 42°   Wind: 20mph
Humidity: 69%   Direction: 330°NNW
Pressure: 29.92"   Gusts: 29mph
Location:  40.2°N, 76.73°W
Report Text: KMDT 230356Z 33017G25KT 10SM BKN025 11/06 A2992 RMK AO2 PK WND 33026/0308 SLP132 T01110056
Loading
Personal Weather Stations






























Interactive Weather Map
Tropical Storm Tracking
New forecast layout! Learn more

10-Day Weather Forecast

Advertisements
Track Severe Weather on mobile